createdAt,value
2022-08-19T00:00:07.525Z,19.97
2022-08-19T00:00:43.078Z,19.95
2022-08-19T00:01:28.670Z,20.02
2022-08-19T00:01:53.740Z,20.06
2022-08-19T00:02:28.553Z,20.02
2022-08-19T00:03:03.762Z,19.95
2022-08-19T00:03:39.065Z,20.08
2022-08-19T00:04:14.319Z,20.02
2022-08-19T00:04:49.927Z,20.00
2022-08-19T00:05:25.111Z,19.90
2022-08-19T00:06:00.290Z,19.87
2022-08-19T00:06:35.778Z,19.98
2022-08-19T00:07:10.961Z,19.90
2022-08-19T00:07:46.447Z,20.03
2022-08-19T00:08:21.855Z,20.03
2022-08-19T00:08:56.861Z,20.00
2022-08-19T00:09:32.369Z,20.05
2022-08-19T00:10:07.484Z,19.98
2022-08-19T00:10:42.710Z,19.93
2022-08-19T00:11:18.700Z,19.98
2022-08-19T00:11:53.038Z,19.88
2022-08-19T00:12:28.431Z,19.86
2022-08-19T00:13:03.640Z,19.91
2022-08-19T00:13:38.805Z,19.94
2022-08-19T00:14:14.104Z,19.98
2022-08-19T00:14:49.593Z,20.00
2022-08-19T00:15:24.795Z,19.90
2022-08-19T00:15:59.990Z,19.87
2022-08-19T00:16:35.278Z,19.90
2022-08-19T00:17:10.664Z,19.93
2022-08-19T00:17:45.979Z,19.98
2022-08-19T00:18:21.266Z,19.88
2022-08-19T00:18:56.581Z,19.91
2022-08-19T00:19:31.558Z,19.91
2022-08-19T00:20:06.968Z,19.93
2022-08-19T00:20:42.356Z,19.90
2022-08-19T00:21:17.362Z,19.78
2022-08-19T00:21:52.433Z,19.76
2022-08-19T00:22:27.519Z,19.79
2022-08-19T00:23:02.615Z,19.68
2022-08-19T00:23:37.694Z,19.72
2022-08-19T00:24:12.889Z,19.69
2022-08-19T00:24:50.830Z,19.79
2022-08-19T00:25:30.442Z,19.79
2022-08-19T00:25:58.665Z,19.73
2022-08-19T00:26:33.838Z,19.76
2022-08-19T00:27:26.207Z,19.83
2022-08-19T00:27:44.735Z,19.76
2022-08-19T00:28:19.862Z,19.87
2022-08-19T00:28:54.853Z,19.80
2022-08-19T00:29:30.138Z,19.79
2022-08-19T00:30:05.324Z,19.80
2022-08-19T00:30:40.506Z,19.70
2022-08-19T00:31:15.710Z,19.80
2022-08-19T00:31:50.855Z,19.79
2022-08-19T00:32:25.742Z,19.79
2022-08-19T00:33:00.728Z,19.68
2022-08-19T00:33:35.814Z,19.68
2022-08-19T00:34:11.016Z,19.63
2022-08-19T00:34:46.003Z,19.46
2022-08-19T00:35:21.421Z,19.54
2022-08-19T00:35:56.388Z,19.48
2022-08-19T00:36:31.428Z,19.31
2022-08-19T00:37:07.050Z,19.39
2022-08-19T00:37:42.044Z,19.35
2022-08-19T00:38:17.169Z,19.35
2022-08-19T00:38:52.361Z,19.36
2022-08-19T00:39:27.535Z,19.31
2022-08-19T00:40:02.771Z,19.21
2022-08-19T00:40:37.939Z,19.24
2022-08-19T00:41:13.036Z,19.24
2022-08-19T00:41:48.560Z,19.18
2022-08-19T00:42:23.643Z,19.13
2022-08-19T00:42:58.924Z,19.18
2022-08-19T00:43:34.142Z,19.24
2022-08-19T00:44:09.328Z,19.24
2022-08-19T00:44:44.590Z,19.23
2022-08-19T00:45:19.674Z,19.23
2022-08-19T00:45:54.873Z,19.24
2022-08-19T00:46:30.256Z,19.23
2022-08-19T00:47:05.364Z,19.21
2022-08-19T00:47:40.473Z,19.32
2022-08-19T00:48:15.883Z,19.33
2022-08-19T00:48:50.859Z,19.32
2022-08-19T00:49:26.471Z,19.36
2022-08-19T00:50:01.485Z,19.40
2022-08-19T00:50:36.897Z,19.40
2022-08-19T00:51:12.106Z,19.39
2022-08-19T00:51:47.076Z,19.38
2022-08-19T00:52:22.386Z,19.35
2022-08-19T00:52:57.388Z,19.24
2022-08-19T00:53:32.796Z,19.38
2022-08-19T00:54:07.868Z,19.24
2022-08-19T00:54:43.058Z,19.21
2022-08-19T00:55:18.379Z,19.28
2022-08-19T00:55:53.793Z,19.23
2022-08-19T00:56:28.987Z,19.38
2022-08-19T00:57:04.213Z,19.40
2022-08-19T00:57:39.119Z,19.33
2022-08-19T00:58:14.849Z,19.29
2022-08-19T00:58:50.101Z,19.40
2022-08-19T01:00:00.807Z,19.39
2022-08-19T01:00:02.635Z,19.42
2022-08-19T01:00:35.978Z,19.31
2022-08-19T01:01:11.015Z,19.24
2022-08-19T01:01:46.163Z,19.21
2022-08-19T01:02:21.141Z,19.21
2022-08-19T01:02:56.475Z,19.25
2022-08-19T01:03:56.977Z,19.29
2022-08-19T01:04:07.082Z,19.17
2022-08-19T01:04:42.475Z,19.24
2022-08-19T01:05:17.596Z,19.13
2022-08-19T01:05:52.805Z,19.15
2022-08-19T01:06:28.111Z,19.18
2022-08-19T01:07:03.413Z,19.20
2022-08-19T01:07:38.551Z,19.24
2022-08-19T01:08:13.626Z,19.23
2022-08-19T01:08:49.934Z,19.17
2022-08-19T01:09:24.326Z,19.21
2022-08-19T01:09:59.828Z,19.21
2022-08-19T01:10:36.849Z,19.23
2022-08-19T01:11:10.665Z,19.21
2022-08-19T01:11:45.756Z,19.24
2022-08-19T01:12:20.853Z,19.15
2022-08-19T01:12:56.336Z,19.25
2022-08-19T01:13:44.588Z,19.21
2022-08-19T01:14:06.663Z,19.24
2022-08-19T01:14:42.163Z,19.29
2022-08-19T01:15:17.270Z,19.18
2022-08-19T01:15:52.457Z,19.33
2022-08-19T01:16:27.566Z,19.33
2022-08-19T01:17:02.794Z,19.28
2022-08-19T01:17:37.870Z,19.23
2022-08-19T01:18:13.086Z,19.23
2022-08-19T01:18:48.693Z,19.18
2022-08-19T01:19:24.003Z,19.33
2022-08-19T01:19:59.515Z,19.38
2022-08-19T01:20:34.714Z,19.38
2022-08-19T01:21:09.940Z,19.33
2022-08-19T01:21:44.942Z,19.38
2022-08-19T01:22:26.496Z,19.36
2022-08-19T01:22:55.500Z,19.35
2022-08-19T01:23:30.568Z,19.21
2022-08-19T01:24:05.710Z,19.31
2022-08-19T01:24:45.193Z,19.23
2022-08-19T01:25:16.394Z,19.21
2022-08-19T01:25:51.873Z,19.21
2022-08-19T01:26:27.387Z,19.21
2022-08-19T01:27:02.784Z,19.17
2022-08-19T01:27:43.836Z,19.10
2022-08-19T01:28:13.180Z,19.14
2022-08-19T01:28:48.363Z,19.13
2022-08-19T01:29:23.690Z,19.14
2022-08-19T01:29:58.995Z,19.20
2022-08-19T01:30:34.277Z,19.14
2022-08-19T01:31:09.193Z,19.21
2022-08-19T01:31:44.503Z,19.17
2022-08-19T01:32:32.312Z,19.08
2022-08-19T01:32:55.022Z,19.14
2022-08-19T01:33:30.435Z,19.11
2022-08-19T01:34:05.356Z,19.05
2022-08-19T01:34:40.865Z,19.21
2022-08-19T01:35:16.171Z,19.23
2022-08-19T01:35:51.163Z,19.25
2022-08-19T01:36:26.369Z,19.21
2022-08-19T01:37:01.572Z,19.18
2022-08-19T01:37:37.074Z,19.13
2022-08-19T01:38:12.449Z,19.20
2022-08-19T01:38:47.581Z,19.18
2022-08-19T01:39:22.978Z,19.17
2022-08-19T01:39:58.138Z,19.24
2022-08-19T01:40:33.422Z,19.24
2022-08-19T01:41:10.889Z,19.25
2022-08-19T01:41:43.977Z,19.18
2022-08-19T01:42:19.480Z,19.18
2022-08-19T01:42:54.964Z,19.28
2022-08-19T01:43:30.009Z,19.35
2022-08-19T01:44:17.654Z,19.20
2022-08-19T01:44:40.490Z,19.25
2022-08-19T01:45:15.666Z,19.17
2022-08-19T01:45:50.984Z,19.15
2022-08-19T01:46:26.396Z,19.21
2022-08-19T01:47:01.705Z,19.18
2022-08-19T01:47:36.815Z,19.20
2022-08-19T01:48:12.139Z,19.15
2022-08-19T01:48:47.337Z,19.15
2022-08-19T01:49:23.162Z,19.14
2022-08-19T01:49:58.357Z,19.23
2022-08-19T01:50:33.690Z,19.06
2022-08-19T01:51:08.905Z,19.11
2022-08-19T01:51:44.422Z,19.10
2022-08-19T01:52:19.617Z,18.99
2022-08-19T01:53:02.370Z,19.01
2022-08-19T01:53:30.598Z,19.10
2022-08-19T01:54:05.076Z,19.20
2022-08-19T01:54:40.098Z,19.13
2022-08-19T01:55:15.390Z,19.23
2022-08-19T01:55:50.612Z,19.17
2022-08-19T01:56:25.799Z,19.15
2022-08-19T01:57:01.000Z,19.24
2022-08-19T01:57:36.206Z,19.25
2022-08-19T01:58:11.412Z,19.23
2022-08-19T01:58:46.717Z,19.10
2022-08-19T01:59:21.998Z,19.14
2022-08-19T01:59:57.114Z,19.13
2022-08-19T02:00:32.297Z,19.08
2022-08-19T02:01:07.945Z,19.13
2022-08-19T02:01:43.064Z,19.17
2022-08-19T02:02:18.239Z,19.11
2022-08-19T02:02:53.608Z,19.15
2022-08-19T02:03:28.530Z,19.01
2022-08-19T02:04:03.845Z,19.06
2022-08-19T02:04:39.156Z,19.06
2022-08-19T02:05:14.370Z,19.02
2022-08-19T02:05:49.523Z,19.02
2022-08-19T02:06:27.081Z,19.11
2022-08-19T02:06:59.961Z,19.02
2022-08-19T02:07:35.471Z,19.01
2022-08-19T02:08:10.668Z,18.94
2022-08-19T02:08:45.769Z,18.92
2022-08-19T02:09:21.174Z,18.90
2022-08-19T02:09:56.351Z,18.87
2022-08-19T02:10:31.332Z,18.94
2022-08-19T02:11:06.354Z,18.94
2022-08-19T02:11:41.855Z,18.83
2022-08-19T02:12:17.045Z,18.94
2022-08-19T02:12:52.549Z,18.90
2022-08-19T02:13:27.645Z,18.86
2022-08-19T02:14:02.969Z,18.83
2022-08-19T02:14:38.387Z,18.84
2022-08-19T02:15:13.879Z,18.80
2022-08-19T02:15:49.199Z,18.83
2022-08-19T02:16:24.396Z,18.82
2022-08-19T02:16:59.598Z,18.83
2022-08-19T02:17:34.703Z,18.84
2022-08-19T02:18:10.178Z,18.95
2022-08-19T02:18:45.485Z,18.91
2022-08-19T02:19:20.760Z,18.92
2022-08-19T02:19:56.157Z,18.94
2022-08-19T02:20:31.472Z,18.91
2022-08-19T02:21:06.515Z,18.94
2022-08-19T02:21:41.544Z,19.01
2022-08-19T02:22:16.746Z,19.01
2022-08-19T02:22:52.065Z,19.01
2022-08-19T02:23:26.997Z,18.99
2022-08-19T02:24:02.168Z,19.01
2022-08-19T02:24:37.296Z,19.02
2022-08-19T02:25:12.410Z,19.13
2022-08-19T02:25:47.613Z,19.14
2022-08-19T02:26:23.021Z,19.11
2022-08-19T02:26:58.441Z,18.97
2022-08-19T02:27:33.739Z,18.98
2022-08-19T02:28:09.118Z,19.02
2022-08-19T02:28:44.508Z,18.94
2022-08-19T02:29:19.891Z,18.97
2022-08-19T02:29:55.123Z,18.98
2022-08-19T02:30:30.428Z,18.99
2022-08-19T02:31:05.639Z,19.01
2022-08-19T02:31:40.875Z,19.06
2022-08-19T02:32:16.362Z,19.08
2022-08-19T02:32:51.574Z,19.05
2022-08-19T02:33:26.867Z,19.10
2022-08-19T02:34:02.066Z,19.05
2022-08-19T02:34:37.452Z,19.15
2022-08-19T02:35:12.888Z,19.06
2022-08-19T02:35:47.806Z,19.11
2022-08-19T02:36:23.001Z,19.08
2022-08-19T02:37:01.845Z,19.06
2022-08-19T02:37:35.037Z,19.05
2022-08-19T02:38:08.834Z,19.05
2022-08-19T02:38:54.235Z,19.06
2022-08-19T02:39:19.716Z,19.11
2022-08-19T02:39:54.978Z,19.14
2022-08-19T02:40:30.331Z,19.01
2022-08-19T02:41:05.667Z,19.11
2022-08-19T02:41:40.956Z,19.02
2022-08-19T02:42:15.930Z,19.06
2022-08-19T02:42:51.031Z,19.02
2022-08-19T02:43:26.121Z,18.98
2022-08-19T02:44:22.907Z,19.02
2022-08-19T02:44:36.941Z,18.95
2022-08-19T02:45:12.130Z,19.10
2022-08-19T02:45:47.634Z,18.95
2022-08-19T02:46:22.679Z,19.05
2022-08-19T02:46:57.690Z,19.01
2022-08-19T02:47:33.100Z,18.92
2022-08-19T02:48:17.925Z,19.05
2022-08-19T02:48:43.789Z,18.99
2022-08-19T02:49:19.309Z,19.02
2022-08-19T02:49:54.512Z,19.05
2022-08-19T02:50:29.639Z,18.98
2022-08-19T02:51:04.990Z,18.94
2022-08-19T02:51:40.172Z,18.95
2022-08-19T02:52:15.608Z,18.90
2022-08-19T02:52:50.904Z,18.97
2022-08-19T02:53:26.204Z,19.01
2022-08-19T02:54:01.596Z,18.97
2022-08-19T02:54:36.818Z,18.94
2022-08-19T02:55:12.415Z,18.95
2022-08-19T02:55:47.920Z,18.87
2022-08-19T02:56:23.241Z,18.92
2022-08-19T02:56:58.419Z,18.97
2022-08-19T02:57:33.583Z,18.95
2022-08-19T02:58:08.881Z,18.99
2022-08-19T02:58:44.345Z,18.91
2022-08-19T02:59:21.132Z,18.97
2022-08-19T02:59:54.758Z,18.94
2022-08-19T03:00:30.281Z,18.87
2022-08-19T03:01:05.685Z,18.94
2022-08-19T03:01:40.919Z,18.92
2022-08-19T03:02:15.999Z,18.99
2022-08-19T03:02:51.285Z,18.98
2022-08-19T03:03:26.693Z,18.97
2022-08-19T03:04:02.085Z,18.91
2022-08-19T03:04:37.382Z,18.91
2022-08-19T03:05:12.876Z,18.90
2022-08-19T03:05:56.167Z,18.91
2022-08-19T03:06:23.323Z,18.83
2022-08-19T03:07:02.196Z,18.90
2022-08-19T03:07:33.933Z,18.94
2022-08-19T03:08:09.134Z,18.95
2022-08-19T03:08:44.727Z,18.92
2022-08-19T03:09:19.721Z,18.97
2022-08-19T03:09:55.216Z,18.91
2022-08-19T03:10:30.565Z,18.91
2022-08-19T03:11:05.886Z,18.94
2022-08-19T03:11:41.277Z,18.87
2022-08-19T03:12:16.385Z,18.86
2022-08-19T03:12:51.607Z,18.80
2022-08-19T03:13:26.981Z,18.74
2022-08-19T03:14:02.192Z,18.72
2022-08-19T03:14:37.300Z,18.86
2022-08-19T03:15:12.659Z,18.83
2022-08-19T03:15:47.777Z,18.90
2022-08-19T03:16:22.905Z,18.84
2022-08-19T03:16:58.106Z,18.86
2022-08-19T03:17:33.419Z,18.82
2022-08-19T03:18:08.748Z,18.91
2022-08-19T03:18:44.066Z,18.84
2022-08-19T03:19:19.194Z,18.87
2022-08-19T03:19:54.605Z,18.86
2022-08-19T03:20:29.699Z,18.79
2022-08-19T03:21:05.029Z,18.84
2022-08-19T03:21:40.270Z,18.83
2022-08-19T03:22:15.584Z,18.84
2022-08-19T03:22:51.075Z,18.82
2022-08-19T03:23:26.361Z,18.82
2022-08-19T03:24:01.848Z,18.91
2022-08-19T03:24:37.051Z,18.79
2022-08-19T03:25:12.237Z,18.84
2022-08-19T03:25:47.420Z,18.86
2022-08-19T03:26:22.849Z,18.83
2022-08-19T03:26:58.260Z,18.77
2022-08-19T03:27:34.491Z,18.82
2022-08-19T03:28:08.843Z,18.84
2022-08-19T03:28:51.279Z,18.86
2022-08-19T03:29:30.814Z,18.82
2022-08-19T03:29:54.800Z,18.82
2022-08-19T03:30:30.129Z,18.84
2022-08-19T03:31:05.044Z,18.74
2022-08-19T03:31:43.631Z,18.83
2022-08-19T03:32:32.275Z,18.86
2022-08-19T03:32:51.393Z,18.79
2022-08-19T03:33:26.490Z,18.86
2022-08-19T03:34:01.380Z,18.77
2022-08-19T03:34:36.379Z,18.86
2022-08-19T03:35:11.636Z,18.80
2022-08-19T03:35:46.750Z,18.86
2022-08-19T03:36:21.859Z,18.77
2022-08-19T03:36:57.156Z,18.70
2022-08-19T03:37:32.634Z,18.79
2022-08-19T03:38:07.629Z,18.77
2022-08-19T03:38:42.942Z,18.77
2022-08-19T03:39:18.245Z,18.72
2022-08-19T03:39:53.510Z,18.73
2022-08-19T03:40:28.867Z,18.77
2022-08-19T03:41:04.283Z,18.77
2022-08-19T03:41:45.722Z,18.65
2022-08-19T03:42:38.082Z,18.72
2022-08-19T03:42:50.026Z,18.73
2022-08-19T03:43:25.232Z,18.68
2022-08-19T03:44:00.528Z,18.77
2022-08-19T03:44:35.676Z,18.76
2022-08-19T03:45:11.189Z,18.77
2022-08-19T03:45:46.301Z,18.68
2022-08-19T03:46:21.606Z,18.72
2022-08-19T03:46:56.798Z,18.70
2022-08-19T03:47:32.210Z,18.72
2022-08-19T03:48:07.301Z,18.73
2022-08-19T03:48:42.584Z,18.73
2022-08-19T03:49:18.506Z,18.72
2022-08-19T03:49:53.384Z,18.73
2022-08-19T03:50:28.478Z,18.74
2022-08-19T03:51:03.995Z,18.73
2022-08-19T03:51:39.224Z,18.72
2022-08-19T03:52:14.629Z,18.73
2022-08-19T03:52:50.351Z,18.77
2022-08-19T03:53:25.456Z,18.77
2022-08-19T03:54:00.762Z,18.68
2022-08-19T03:54:36.378Z,18.73
2022-08-19T03:55:11.685Z,18.73
2022-08-19T03:55:46.892Z,18.74
2022-08-19T03:56:22.021Z,18.67
2022-08-19T03:56:57.334Z,18.76
2022-08-19T03:57:32.547Z,18.77
2022-08-19T03:58:07.831Z,18.72
2022-08-19T03:58:43.349Z,18.76
2022-08-19T03:59:18.542Z,18.68
2022-08-19T03:59:53.734Z,18.73
2022-08-19T04:00:29.233Z,18.72
2022-08-19T04:01:04.590Z,18.77
2022-08-19T04:01:39.982Z,18.65
2022-08-19T04:02:15.361Z,18.70
2022-08-19T04:02:58.055Z,18.76
2022-08-19T04:03:26.185Z,18.62
2022-08-19T04:04:01.588Z,18.70
2022-08-19T04:04:36.589Z,18.67
2022-08-19T04:05:11.885Z,18.70
2022-08-19T04:05:46.986Z,18.67
2022-08-19T04:06:22.424Z,18.61
2022-08-19T04:06:57.641Z,18.72
2022-08-19T04:07:33.183Z,18.64
2022-08-19T04:08:12.014Z,18.58
2022-08-19T04:08:43.799Z,18.62
2022-08-19T04:09:19.204Z,18.59
2022-08-19T04:09:54.420Z,18.65
2022-08-19T04:10:29.819Z,18.59
2022-08-19T04:11:05.132Z,18.55
2022-08-19T04:11:43.970Z,18.58
2022-08-19T04:12:16.024Z,18.52
2022-08-19T04:12:51.195Z,18.57
2022-08-19T04:13:26.540Z,18.55
2022-08-19T04:14:01.720Z,18.54
2022-08-19T04:14:37.229Z,18.64
2022-08-19T04:15:12.314Z,18.59
2022-08-19T04:15:47.444Z,18.46
2022-08-19T04:16:35.107Z,18.59
2022-08-19T04:17:05.001Z,18.57
2022-08-19T04:17:40.496Z,18.49
2022-08-19T04:18:15.889Z,18.54
2022-08-19T04:18:50.888Z,18.49
2022-08-19T04:19:25.984Z,18.52
2022-08-19T04:20:00.958Z,18.58
2022-08-19T04:20:36.058Z,18.47
2022-08-19T04:21:11.157Z,18.37
2022-08-19T04:21:46.553Z,18.42
2022-08-19T04:22:21.837Z,18.50
2022-08-19T04:22:57.055Z,18.34
2022-08-19T04:23:32.241Z,18.39
2022-08-19T04:24:07.420Z,18.39
2022-08-19T04:24:42.815Z,18.33
2022-08-19T04:25:18.312Z,18.55
2022-08-19T04:25:53.628Z,18.42
2022-08-19T04:26:29.237Z,18.49
2022-08-19T04:27:04.626Z,18.52
2022-08-19T04:27:39.439Z,18.47
2022-08-19T04:28:14.542Z,18.57
2022-08-19T04:28:49.851Z,18.59
2022-08-19T04:29:25.263Z,18.52
2022-08-19T04:30:00.245Z,18.54
2022-08-19T04:30:35.582Z,18.52
2022-08-19T04:31:11.107Z,18.50
2022-08-19T04:31:46.607Z,18.54
2022-08-19T04:32:21.931Z,18.55
2022-08-19T04:32:57.219Z,18.57
2022-08-19T04:33:32.131Z,18.61
2022-08-19T04:34:07.343Z,18.58
2022-08-19T04:35:01.305Z,18.52
2022-08-19T04:35:19.410Z,18.57
2022-08-19T04:35:53.391Z,18.52
2022-08-19T04:36:28.465Z,18.61
2022-08-19T04:37:03.651Z,18.54
2022-08-19T04:37:38.849Z,18.65
2022-08-19T04:38:14.150Z,18.57
2022-08-19T04:38:49.039Z,18.57
2022-08-19T04:39:24.520Z,18.59
2022-08-19T04:40:02.334Z,18.58
2022-08-19T04:40:35.125Z,18.52
2022-08-19T04:41:10.426Z,18.57
2022-08-19T04:41:45.721Z,18.54
2022-08-19T04:42:21.225Z,18.59
2022-08-19T04:42:56.609Z,18.55
2022-08-19T04:43:31.907Z,18.44
2022-08-19T04:44:06.991Z,18.50
2022-08-19T04:44:46.095Z,18.52
2022-08-19T04:45:17.631Z,18.43
2022-08-19T04:45:52.994Z,18.54
2022-08-19T04:46:39.364Z,18.54
2022-08-19T04:47:03.674Z,18.49
2022-08-19T04:47:47.699Z,18.57
2022-08-19T04:48:26.660Z,18.54
2022-08-19T04:48:49.576Z,18.55
2022-08-19T04:49:24.540Z,18.57
2022-08-19T04:49:59.697Z,18.47
2022-08-19T04:50:35.208Z,18.46
2022-08-19T04:51:10.701Z,18.43
2022-08-19T04:51:45.701Z,18.42
2022-08-19T04:52:21.086Z,18.43
2022-08-19T04:52:56.038Z,18.49
2022-08-19T04:53:35.528Z,18.49
2022-08-19T04:54:06.518Z,18.40
2022-08-19T04:54:41.816Z,18.40
2022-08-19T04:55:16.908Z,18.40
2022-08-19T04:55:52.115Z,18.36
2022-08-19T04:56:27.421Z,18.39
2022-08-19T04:57:02.609Z,18.39
2022-08-19T04:57:38.091Z,18.36
2022-08-19T04:58:13.180Z,18.36
2022-08-19T04:58:48.096Z,18.37
2022-08-19T04:59:23.280Z,18.34
2022-08-19T04:59:58.621Z,18.37
2022-08-19T05:00:35.497Z,18.36
2022-08-19T05:01:09.438Z,18.43
2022-08-19T05:01:44.728Z,18.37
2022-08-19T05:02:19.910Z,18.27
2022-08-19T05:02:55.112Z,18.37
2022-08-19T05:03:30.677Z,18.39
2022-08-19T05:04:05.709Z,18.31
2022-08-19T05:04:41.303Z,18.39
2022-08-19T05:05:16.802Z,18.34
2022-08-19T05:05:52.107Z,18.37
2022-08-19T05:06:27.240Z,18.37
2022-08-19T05:07:02.572Z,18.33
2022-08-19T05:07:37.745Z,18.29
2022-08-19T05:08:13.128Z,18.42
2022-08-19T05:08:48.550Z,18.34
2022-08-19T05:09:23.839Z,18.44
2022-08-19T05:09:59.258Z,18.39
2022-08-19T05:10:34.269Z,18.47
2022-08-19T05:11:09.557Z,18.52
2022-08-19T05:11:44.757Z,18.36
2022-08-19T05:12:19.944Z,18.34
2022-08-19T05:12:55.068Z,18.37
2022-08-19T05:13:30.203Z,18.44
2022-08-19T05:14:05.385Z,18.43
2022-08-19T05:14:40.475Z,18.42
2022-08-19T05:15:15.861Z,18.44
2022-08-19T05:15:51.081Z,18.40
2022-08-19T05:16:26.055Z,18.50
2022-08-19T05:17:25.581Z,18.46
2022-08-19T05:17:38.730Z,18.43
2022-08-19T05:18:11.655Z,18.52
2022-08-19T05:18:47.137Z,18.54
2022-08-19T05:19:22.224Z,18.46
2022-08-19T05:19:57.329Z,18.55
2022-08-19T05:20:32.532Z,18.55
2022-08-19T05:21:07.745Z,18.54
2022-08-19T05:21:43.034Z,18.44
2022-08-19T05:22:18.110Z,18.52
2022-08-19T05:22:53.724Z,18.58
2022-08-19T05:23:28.767Z,18.52
2022-08-19T05:24:04.357Z,18.55
2022-08-19T05:24:56.356Z,18.54
2022-08-19T05:25:14.934Z,18.55
2022-08-19T05:25:50.148Z,18.57
2022-08-19T05:26:25.332Z,18.68
2022-08-19T05:27:00.432Z,18.58
2022-08-19T05:27:35.522Z,18.61
2022-08-19T05:28:10.722Z,18.68
2022-08-19T05:28:45.940Z,18.73
2022-08-19T05:29:21.224Z,18.74
2022-08-19T05:29:56.531Z,18.73
2022-08-19T05:30:46.361Z,18.76
2022-08-19T05:31:06.960Z,18.74
2022-08-19T05:31:42.274Z,18.82
2022-08-19T05:32:17.544Z,18.91
2022-08-19T05:32:54.012Z,18.80
2022-08-19T05:33:28.235Z,18.80
2022-08-19T05:34:03.478Z,18.80
2022-08-19T05:34:38.691Z,18.87
2022-08-19T05:35:13.678Z,18.86
2022-08-19T05:35:49.421Z,18.90
2022-08-19T05:36:24.698Z,18.90
2022-08-19T05:36:59.924Z,18.99
2022-08-19T05:37:35.115Z,18.94
2022-08-19T05:38:10.311Z,18.95
2022-08-19T05:38:45.505Z,18.91
2022-08-19T05:39:20.982Z,18.92
2022-08-19T05:39:56.182Z,18.92
2022-08-19T05:40:31.258Z,18.98
2022-08-19T05:41:06.470Z,18.98
2022-08-19T05:41:41.858Z,18.97
2022-08-19T05:42:17.059Z,18.99
2022-08-19T05:42:55.177Z,19.01
2022-08-19T05:43:27.448Z,18.95
2022-08-19T05:44:02.862Z,19.05
2022-08-19T05:44:38.219Z,19.05
2022-08-19T05:45:13.733Z,19.11
2022-08-19T05:45:49.048Z,19.08
2022-08-19T05:46:27.804Z,19.13
2022-08-19T05:46:59.643Z,19.08
2022-08-19T05:47:34.634Z,19.15
2022-08-19T05:48:09.836Z,19.15
2022-08-19T05:48:45.226Z,19.13
2022-08-19T05:49:20.536Z,19.23
2022-08-19T05:49:55.932Z,19.25
2022-08-19T05:50:31.033Z,19.24
2022-08-19T05:51:06.566Z,19.31
2022-08-19T05:51:41.961Z,19.35
2022-08-19T05:52:18.878Z,19.32
2022-08-19T05:52:52.231Z,19.36
2022-08-19T05:53:27.300Z,19.38
2022-08-19T05:54:02.483Z,19.31
2022-08-19T05:54:37.683Z,19.48
2022-08-19T05:55:12.884Z,19.50
2022-08-19T05:55:48.033Z,19.48
2022-08-19T05:56:23.230Z,19.46
2022-08-19T05:56:58.546Z,19.51
2022-08-19T05:57:33.638Z,19.57
2022-08-19T05:58:08.934Z,19.55
2022-08-19T05:58:43.944Z,19.61
2022-08-19T05:59:19.443Z,19.70
2022-08-19T05:59:58.237Z,19.69
2022-08-19T06:00:29.977Z,19.70
2022-08-19T06:01:05.290Z,19.75
2022-08-19T06:01:40.494Z,19.79
2022-08-19T06:02:15.778Z,19.73
2022-08-19T06:02:51.103Z,19.83
2022-08-19T06:03:26.198Z,19.84
2022-08-19T06:04:01.509Z,19.91
2022-08-19T06:04:36.686Z,19.83
2022-08-19T06:05:11.792Z,19.91
2022-08-19T06:05:51.781Z,20.06
2022-08-19T06:06:21.993Z,20.02
2022-08-19T06:06:57.102Z,20.08
2022-08-19T06:07:32.507Z,20.10
2022-08-19T06:08:07.701Z,20.09
2022-08-19T06:08:42.905Z,20.12
2022-08-19T06:09:18.120Z,20.21
2022-08-19T06:10:00.019Z,20.24
2022-08-19T06:10:28.823Z,20.20
2022-08-19T06:11:04.129Z,20.23
2022-08-19T06:11:39.623Z,20.33
2022-08-19T06:12:14.812Z,20.38
2022-08-19T06:12:50.337Z,20.33
2022-08-19T06:13:25.634Z,20.39
2022-08-19T06:14:00.850Z,20.31
2022-08-19T06:14:40.203Z,20.33
2022-08-19T06:15:10.939Z,20.38
2022-08-19T06:15:46.129Z,20.38
2022-08-19T06:16:21.528Z,20.31
2022-08-19T06:16:56.976Z,20.42
2022-08-19T06:17:32.307Z,20.46
2022-08-19T06:18:07.254Z,20.46
2022-08-19T06:18:42.475Z,20.41
2022-08-19T06:19:17.887Z,20.51
2022-08-19T06:19:53.008Z,20.46
2022-08-19T06:20:52.559Z,20.42
2022-08-19T06:21:03.659Z,20.43
2022-08-19T06:21:39.139Z,20.59
2022-08-19T06:22:14.564Z,20.53
2022-08-19T06:22:49.685Z,20.54
2022-08-19T06:23:24.973Z,20.61
2022-08-19T06:24:00.295Z,20.58
2022-08-19T06:24:35.598Z,20.58
2022-08-19T06:25:10.793Z,20.59
2022-08-19T06:25:46.112Z,20.54
2022-08-19T06:26:21.613Z,20.65
2022-08-19T06:26:59.299Z,20.62
2022-08-19T06:27:31.931Z,20.62
2022-08-19T06:28:15.410Z,20.69
2022-08-19T06:28:42.440Z,20.76
2022-08-19T06:29:24.097Z,20.79
2022-08-19T06:29:52.986Z,20.84
2022-08-19T06:30:28.396Z,20.77
2022-08-19T06:31:03.730Z,20.91
2022-08-19T06:31:38.920Z,20.90
2022-08-19T06:32:14.017Z,20.98
2022-08-19T06:32:49.442Z,20.93
2022-08-19T06:33:24.448Z,21.01
2022-08-19T06:33:59.550Z,21.01
2022-08-19T06:34:35.048Z,21.09
2022-08-19T06:35:10.447Z,21.01
2022-08-19T22:01:18.598Z,23.19
2022-08-19T22:02:05.644Z,23.34
2022-08-19T22:02:29.068Z,23.23
2022-08-19T22:03:04.148Z,23.22
2022-08-19T22:03:39.374Z,23.26
2022-08-19T22:04:14.546Z,23.24
2022-08-19T22:04:49.552Z,23.31
2022-08-19T22:05:25.053Z,23.17
2022-08-19T22:06:00.380Z,23.22
2022-08-19T22:06:35.677Z,23.14
2022-08-19T22:07:11.370Z,23.19
2022-08-19T22:07:46.654Z,23.15
2022-08-19T22:08:21.959Z,23.19
2022-08-19T22:08:57.150Z,23.15
2022-08-19T22:09:32.362Z,23.23
2022-08-19T22:10:07.450Z,23.17
2022-08-19T22:10:42.746Z,23.20
2022-08-19T22:11:18.071Z,23.19
2022-08-19T22:11:53.186Z,23.14
2022-08-19T22:12:28.509Z,23.17
2022-08-19T22:13:04.012Z,23.19
2022-08-19T22:13:46.161Z,23.24
2022-08-19T22:14:21.628Z,23.22
2022-08-19T22:14:56.717Z,23.17
2022-08-19T22:15:31.911Z,23.17
2022-08-19T22:16:06.999Z,23.14
2022-08-19T22:16:42.434Z,23.22
2022-08-19T22:17:17.932Z,23.15
2022-08-19T22:17:53.567Z,23.09
2022-08-19T22:18:28.952Z,23.20
2022-08-19T22:19:04.366Z,23.19
2022-08-19T22:19:39.665Z,23.11
2022-08-19T22:20:14.964Z,23.14
2022-08-19T22:20:50.068Z,23.15
2022-08-19T22:21:40.337Z,23.14
2022-08-19T22:22:00.990Z,23.15
2022-08-19T22:22:36.175Z,23.12
2022-08-19T22:23:11.388Z,23.20
2022-08-19T22:23:46.699Z,23.11
2022-08-19T22:24:21.897Z,23.04
2022-08-19T22:24:57.231Z,23.17
2022-08-19T22:25:32.626Z,23.08
2022-08-19T22:26:08.333Z,23.14
2022-08-19T22:26:43.772Z,23.09
2022-08-19T22:27:19.060Z,23.08
2022-08-19T22:27:54.125Z,23.09
2022-08-19T22:28:29.668Z,23.07
2022-08-19T22:29:04.859Z,23.07
2022-08-19T22:29:40.264Z,23.15
2022-08-19T22:30:15.377Z,23.19
2022-08-19T22:30:51.183Z,23.14
2022-08-19T22:31:25.622Z,23.11
2022-08-19T22:32:00.489Z,23.12
2022-08-19T22:32:35.488Z,23.12
2022-08-19T22:33:10.758Z,23.11
2022-08-19T22:33:45.881Z,23.11
2022-08-19T22:34:21.078Z,23.02
2022-08-19T22:34:56.279Z,23.08
2022-08-19T22:35:31.402Z,23.04
2022-08-19T22:36:06.678Z,23.02
2022-08-19T22:36:41.676Z,23.07
2022-08-19T22:37:16.906Z,23.07
2022-08-19T22:37:52.181Z,23.01
2022-08-19T22:38:27.422Z,23.11
2022-08-19T22:39:02.627Z,23.12
2022-08-19T22:39:37.858Z,23.04
2022-08-19T22:40:13.251Z,23.02
2022-08-19T22:40:48.137Z,23.07
2022-08-19T22:41:23.653Z,23.04
2022-08-19T22:41:58.908Z,22.99
2022-08-19T22:42:34.307Z,23.09
2022-08-19T22:43:09.894Z,23.09
2022-08-19T22:43:44.995Z,23.02
2022-08-19T22:44:20.478Z,23.07
2022-08-19T22:44:55.487Z,23.08
2022-08-19T22:45:31.292Z,22.96
2022-08-19T22:46:16.970Z,23.05
2022-08-19T22:46:41.844Z,23.05
2022-08-19T22:47:17.129Z,23.09
2022-08-19T22:47:52.279Z,23.05
2022-08-19T22:48:27.398Z,23.11
2022-08-19T22:49:02.617Z,23.02
2022-08-19T22:49:37.899Z,23.05
2022-08-19T22:50:13.743Z,23.11
2022-08-19T22:50:48.088Z,23.04
2022-08-19T22:51:23.203Z,23.14
2022-08-19T22:51:58.489Z,22.99
2022-08-19T22:52:33.819Z,23.08
2022-08-19T22:53:09.104Z,23.01
2022-08-19T22:53:44.522Z,23.01
2022-08-19T22:54:20.107Z,23.02
2022-08-19T22:54:55.532Z,23.14
2022-08-19T22:55:30.649Z,23.04
2022-08-19T22:56:05.878Z,23.09
2022-08-19T22:56:41.283Z,23.07
2022-08-19T22:57:16.579Z,23.01
2022-08-19T22:57:52.019Z,23.07
2022-08-19T22:58:28.283Z,23.09
2022-08-19T22:59:02.575Z,23.09
2022-08-19T22:59:37.971Z,23.02